Gaspar Campos, Argentina
Current Conditions -  °F | °C
As of 2:00 AM on Saturday 01 Nov 2014 (Local Time) from SAME Reporting Station
Clear Clear  
Wind Chill: 59°   Ceiling: Unl
Heat Index: 59°   Visibility: 6mi
Dew Point: 25°   Wind: 8mph
Humidity: 27%   Direction: 160°SSE
Pressure: 30.12"   Gusts: NA
Location:  34.63°S, 67.69°W
Report Text: SAME 010500Z 16007KT CAVOK 15/M04 Q1020
Loading
Personal Weather Stations






























Interactive Weather Map
Tropical Storm Tracking
New forecast layout! Learn more

10-Day Weather Forecast

Advertisements
Track Severe Weather on mobile